sensor_id;sensor_type;location;lat;lon;timestamp;P1;durP1;ratioP1;P2;durP2;ratioP2
43990;SDS011;29654;50.784;20.604;2024-03-22T00:02:33;19.73;;;16.20;;
43990;SDS011;29654;50.784;20.604;2024-03-22T00:07:36;18.10;;;14.60;;
43990;SDS011;29654;50.784;20.604;2024-03-22T00:12:40;16.80;;;15.05;;
43990;SDS011;29654;50.784;20.604;2024-03-22T00:17:44;18.80;;;14.75;;
43990;SDS011;29654;50.784;20.604;2024-03-22T00:22:47;25.10;;;19.58;;
43990;SDS011;29654;50.784;20.604;2024-03-22T00:27:51;22.33;;;18.42;;
43990;SDS011;29654;50.784;20.604;2024-03-22T00:32:55;19.58;;;15.10;;
43990;SDS011;29654;50.784;20.604;2024-03-22T00:37:58;21.30;;;15.80;;
43990;SDS011;29654;50.784;20.604;2024-03-22T00:43:02;21.40;;;16.58;;
43990;SDS011;29654;50.784;20.604;2024-03-22T00:48:06;19.23;;;15.55;;
43990;SDS011;29654;50.784;20.604;2024-03-22T00:53:09;18.38;;;13.63;;
43990;SDS011;29654;50.784;20.604;2024-03-22T00:58:14;17.67;;;14.20;;
43990;SDS011;29654;50.784;20.604;2024-03-22T01:03:17;16.80;;;14.23;;
43990;SDS011;29654;50.784;20.604;2024-03-22T01:08:20;18.27;;;13.98;;
43990;SDS011;29654;50.784;20.604;2024-03-22T01:13:24;15.88;;;11.93;;
43990;SDS011;29654;50.784;20.604;2024-03-22T01:18:27;17.80;;;14.13;;
43990;SDS011;29654;50.784;20.604;2024-03-22T01:23:30;17.17;;;15.07;;
43990;SDS011;29654;50.784;20.604;2024-03-22T01:28:34;16.45;;;13.50;;
43990;SDS011;29654;50.784;20.604;2024-03-22T01:33:37;17.40;;;15.20;;
43990;SDS011;29654;50.784;20.604;2024-03-22T01:38:43;20.48;;;15.48;;
43990;SDS011;29654;50.784;20.604;2024-03-22T01:43:47;16.25;;;14.55;;
43990;SDS011;29654;50.784;20.604;2024-03-22T01:48:50;18.17;;;15.85;;
43990;SDS011;29654;50.784;20.604;2024-03-22T01:53:54;16.42;;;14.45;;
43990;SDS011;29654;50.784;20.604;2024-03-22T01:58:59;18.42;;;14.23;;
43990;SDS011;29654;50.784;20.604;2024-03-22T02:04:02;20.52;;;16.52;;
43990;SDS011;29654;50.784;20.604;2024-03-22T02:09:05;15.57;;;13.23;;
43990;SDS011;29654;50.784;20.604;2024-03-22T02:14:11;18.42;;;15.43;;
43990;SDS011;29654;50.784;20.604;2024-03-22T02:19:14;15.23;;;13.60;;
43990;SDS011;29654;50.784;20.604;2024-03-22T02:24:18;18.63;;;16.02;;
43990;SDS011;29654;50.784;20.604;2024-03-22T02:29:21;19.55;;;15.73;;
43990;SDS011;29654;50.784;20.604;2024-03-22T02:34:24;18.48;;;14.73;;
43990;SDS011;29654;50.784;20.604;2024-03-22T02:39:29;18.08;;;16.05;;
43990;SDS011;29654;50.784;20.604;2024-03-22T02:44:32;17.10;;;15.13;;
43990;SDS011;29654;50.784;20.604;2024-03-22T02:49:34;18.38;;;15.25;;
43990;SDS011;29654;50.784;20.604;2024-03-22T02:54:39;15.82;;;13.95;;
43990;SDS011;29654;50.784;20.604;2024-03-22T02:59:44;18.65;;;14.38;;
43990;SDS011;29654;50.784;20.604;2024-03-22T03:04:48;17.65;;;15.43;;
43990;SDS011;29654;50.784;20.604;2024-03-22T03:09:53;17.95;;;14.40;;
43990;SDS011;29654;50.784;20.604;2024-03-22T03:14:56;18.30;;;14.45;;
43990;SDS011;29654;50.784;20.604;2024-03-22T03:19:59;19.55;;;15.80;;
43990;SDS011;29654;50.784;20.604;2024-03-22T03:25:03;17.25;;;14.57;;
43990;SDS011;29654;50.784;20.604;2024-03-22T03:30:07;20.48;;;15.45;;
43990;SDS011;29654;50.784;20.604;2024-03-22T03:35:10;21.52;;;15.68;;
43990;SDS011;29654;50.784;20.604;2024-03-22T03:40:15;22.25;;;17.20;;
43990;SDS011;29654;50.784;20.604;2024-03-22T03:45:18;22.27;;;16.08;;
43990;SDS011;29654;50.784;20.604;2024-03-22T03:50:21;19.65;;;13.93;;
43990;SDS011;29654;50.784;20.604;2024-03-22T03:55:26;22.30;;;17.73;;
43990;SDS011;29654;50.784;20.604;2024-03-22T04:00:29;24.20;;;18.30;;
43990;SDS011;29654;50.784;20.604;2024-03-22T04:05:32;24.35;;;18.15;;
43990;SDS011;29654;50.784;20.604;2024-03-22T04:10:36;22.27;;;16.35;;
43990;SDS011;29654;50.784;20.604;2024-03-22T04:15:39;22.27;;;18.35;;
43990;SDS011;29654;50.784;20.604;2024-03-22T04:20:42;22.20;;;18.50;;
43990;SDS011;29654;50.784;20.604;2024-03-22T04:25:57;22.63;;;18.88;;
43990;SDS011;29654;50.784;20.604;2024-03-22T04:31:01;22.48;;;19.33;;
43990;SDS011;29654;50.784;20.604;2024-03-22T04:36:06;20.50;;;15.63;;
43990;SDS011;29654;50.784;20.604;2024-03-22T04:41:12;25.10;;;19.02;;
43990;SDS011;29654;50.784;20.604;2024-03-22T04:46:15;24.85;;;19.40;;
43990;SDS011;29654;50.784;20.604;2024-03-22T04:51:18;22.70;;;18.13;;
43990;SDS011;29654;50.784;20.604;2024-03-22T04:56:22;22.15;;;18.15;;
43990;SDS011;29654;50.784;20.604;2024-03-22T05:01:27;22.35;;;19.48;;
43990;SDS011;29654;50.784;20.604;2024-03-22T05:06:30;25.27;;;19.55;;
43990;SDS011;29654;50.784;20.604;2024-03-22T05:11:34;21.73;;;18.80;;
43990;SDS011;29654;50.784;20.604;2024-03-22T05:16:37;23.58;;;20.23;;
43990;SDS011;29654;50.784;20.604;2024-03-22T05:21:40;25.17;;;20.63;;
43990;SDS011;29654;50.784;20.604;2024-03-22T05:26:45;22.98;;;20.08;;
43990;SDS011;29654;50.784;20.604;2024-03-22T05:31:48;24.00;;;18.75;;
43990;SDS011;29654;50.784;20.604;2024-03-22T05:36:52;23.80;;;19.85;;
43990;SDS011;29654;50.784;20.604;2024-03-22T05:41:56;22.27;;;19.50;;
43990;SDS011;29654;50.784;20.604;2024-03-22T05:46:59;25.30;;;21.08;;
43990;SDS011;29654;50.784;20.604;2024-03-22T05:52:02;22.65;;;20.10;;
43990;SDS011;29654;50.784;20.604;2024-03-22T05:57:07;24.40;;;20.80;;
43990;SDS011;29654;50.784;20.604;2024-03-22T06:02:10;21.77;;;18.20;;
43990;SDS011;29654;50.784;20.604;2024-03-22T06:07:13;25.10;;;20.92;;
43990;SDS011;29654;50.784;20.604;2024-03-22T06:12:19;24.48;;;21.88;;
43990;SDS011;29654;50.784;20.604;2024-03-22T06:17:22;25.58;;;22.33;;
43990;SDS011;29654;50.784;20.604;2024-03-22T06:22:25;25.55;;;21.75;;
43990;SDS011;29654;50.784;20.604;2024-03-22T06:27:29;23.92;;;21.33;;
43990;SDS011;29654;50.784;20.604;2024-03-22T06:32:32;26.10;;;22.20;;
43990;SDS011;29654;50.784;20.604;2024-03-22T06:37:35;25.63;;;22.50;;
43990;SDS011;29654;50.784;20.604;2024-03-22T06:42:40;21.92;;;19.52;;
43990;SDS011;29654;50.784;20.604;2024-03-22T06:47:43;24.40;;;21.85;;
43990;SDS011;29654;50.784;20.604;2024-03-22T06:52:46;21.98;;;19.73;;
43990;SDS011;29654;50.784;20.604;2024-03-22T06:57:50;23.48;;;20.67;;
43990;SDS011;29654;50.784;20.604;2024-03-22T07:02:54;25.35;;;21.90;;
43990;SDS011;29654;50.784;20.604;2024-03-22T07:07:57;25.27;;;19.73;;
43990;SDS011;29654;50.784;20.604;2024-03-22T07:13:02;23.38;;;20.65;;
43990;SDS011;29654;50.784;20.604;2024-03-22T07:18:05;24.20;;;20.90;;
43990;SDS011;29654;50.784;20.604;2024-03-22T07:23:08;22.27;;;19.27;;
43990;SDS011;29654;50.784;20.604;2024-03-22T07:28:12;22.67;;;19.83;;
43990;SDS011;29654;50.784;20.604;2024-03-22T07:33:15;22.85;;;19.60;;
43990;SDS011;29654;50.784;20.604;2024-03-22T07:38:18;21.55;;;19.08;;
43990;SDS011;29654;50.784;20.604;2024-03-22T07:43:22;21.13;;;18.90;;
43990;SDS011;29654;50.784;20.604;2024-03-22T07:48:25;21.55;;;18.42;;
43990;SDS011;29654;50.784;20.604;2024-03-22T07:53:28;20.33;;;18.17;;
43990;SDS011;29654;50.784;20.604;2024-03-22T07:58:33;21.33;;;19.02;;
43990;SDS011;29654;50.784;20.604;2024-03-22T08:03:36;20.90;;;18.27;;
43990;SDS011;29654;50.784;20.604;2024-03-22T08:08:38;18.52;;;16.48;;
43990;SDS011;29654;50.784;20.604;2024-03-22T08:13:43;20.10;;;17.83;;
43990;SDS011;29654;50.784;20.604;2024-03-22T08:18:47;19.88;;;16.95;;
43990;SDS011;29654;50.784;20.604;2024-03-22T08:23:49;19.02;;;17.02;;
43990;SDS011;29654;50.784;20.604;2024-03-22T08:28:55;18.58;;;16.58;;
43990;SDS011;29654;50.784;20.604;2024-03-22T08:33:58;19.00;;;17.00;;
43990;SDS011;29654;50.784;20.604;2024-03-22T08:39:02;18.70;;;16.80;;
43990;SDS011;29654;50.784;20.604;2024-03-22T08:44:07;18.65;;;16.73;;
43990;SDS011;29654;50.784;20.604;2024-03-22T08:49:10;17.60;;;15.90;;
43990;SDS011;29654;50.784;20.604;2024-03-22T08:54:13;18.33;;;16.38;;
43990;SDS011;29654;50.784;20.604;2024-03-22T08:59:18;19.90;;;17.85;;
43990;SDS011;29654;50.784;20.604;2024-03-22T09:04:21;20.85;;;18.25;;
43990;SDS011;29654;50.784;20.604;2024-03-22T09:09:24;22.08;;;17.60;;
43990;SDS011;29654;50.784;20.604;2024-03-22T09:14:29;23.45;;;19.38;;
43990;SDS011;29654;50.784;20.604;2024-03-22T09:19:31;20.70;;;18.58;;
43990;SDS011;29654;50.784;20.604;2024-03-22T09:24:35;22.02;;;19.65;;
43990;SDS011;29654;50.784;20.604;2024-03-22T09:29:39;24.50;;;21.92;;
43990;SDS011;29654;50.784;20.604;2024-03-22T09:34:44;21.42;;;19.30;;
43990;SDS011;29654;50.784;20.604;2024-03-22T09:39:47;19.27;;;17.05;;
43990;SDS011;29654;50.784;20.604;2024-03-22T09:44:51;16.58;;;14.85;;
43990;SDS011;29654;50.784;20.604;2024-03-22T09:49:54;13.45;;;12.13;;
43990;SDS011;29654;50.784;20.604;2024-03-22T09:54:58;12.60;;;11.40;;
43990;SDS011;29654;50.784;20.604;2024-03-22T10:00:07;11.20;;;10.20;;
43990;SDS011;29654;50.784;20.604;2024-03-22T10:05:14;10.55;;;9.57;;
43990;SDS011;29654;50.784;20.604;2024-03-22T10:10:19;12.55;;;11.30;;
43990;SDS011;29654;50.784;20.604;2024-03-22T10:15:23;11.60;;;10.50;;
43990;SDS011;29654;50.784;20.604;2024-03-22T10:20:27;11.48;;;10.45;;
43990;SDS011;29654;50.784;20.604;2024-03-22T10:25:30;12.40;;;11.15;;
43990;SDS011;29654;50.784;20.604;2024-03-22T10:30:35;11.32;;;10.30;;
43990;SDS011;29654;50.784;20.604;2024-03-22T10:35:39;10.50;;;9.52;;
43990;SDS011;29654;50.784;20.604;2024-03-22T10:40:44;9.65;;;8.73;;
43990;SDS011;29654;50.784;20.604;2024-03-22T10:45:49;12.20;;;11.00;;
43990;SDS011;29654;50.784;20.604;2024-03-22T10:50:54;9.88;;;8.88;;
43990;SDS011;29654;50.784;20.604;2024-03-22T10:56:02;10.10;;;9.15;;
43990;SDS011;29654;50.784;20.604;2024-03-22T11:01:11;10.13;;;9.23;;
43990;SDS011;29654;50.784;20.604;2024-03-22T11:06:26;10.80;;;9.63;;
43990;SDS011;29654;50.784;20.604;2024-03-22T11:11:29;10.88;;;9.98;;
43990;SDS011;29654;50.784;20.604;2024-03-22T11:16:39;10.85;;;9.85;;
43990;SDS011;29654;50.784;20.604;2024-03-22T11:21:46;11.15;;;10.15;;
43990;SDS011;29654;50.784;20.604;2024-03-22T11:26:49;10.27;;;9.32;;
43990;SDS011;29654;50.784;20.604;2024-03-22T11:31:53;11.48;;;10.43;;
43990;SDS011;29654;50.784;20.604;2024-03-22T11:36:56;11.38;;;10.00;;
43990;SDS011;29654;50.784;20.604;2024-03-22T11:41:59;9.18;;;8.38;;
43990;SDS011;29654;50.784;20.604;2024-03-22T11:47:04;8.82;;;8.10;;
43990;SDS011;29654;50.784;20.604;2024-03-22T11:52:08;9.30;;;8.50;;
43990;SDS011;29654;50.784;20.604;2024-03-22T11:57:11;8.98;;;8.18;;
43990;SDS011;29654;50.784;20.604;2024-03-22T12:02:15;10.20;;;9.30;;
43990;SDS011;29654;50.784;20.604;2024-03-22T12:07:18;9.07;;;8.23;;
43990;SDS011;29654;50.784;20.604;2024-03-22T12:12:21;6.93;;;6.22;;
43990;SDS011;29654;50.784;20.604;2024-03-22T12:17:26;9.30;;;8.40;;
43990;SDS011;29654;50.784;20.604;2024-03-22T12:22:29;7.22;;;6.53;;
43990;SDS011;29654;50.784;20.604;2024-03-22T12:27:32;6.38;;;5.82;;
43990;SDS011;29654;50.784;20.604;2024-03-22T12:32:36;5.45;;;4.95;;
43990;SDS011;29654;50.784;20.604;2024-03-22T12:37:39;5.40;;;4.90;;
43990;SDS011;29654;50.784;20.604;2024-03-22T12:42:42;5.75;;;5.25;;
43990;SDS011;29654;50.784;20.604;2024-03-22T12:47:47;4.32;;;3.97;;
43990;SDS011;29654;50.784;20.604;2024-03-22T12:52:50;4.85;;;4.32;;
43990;SDS011;29654;50.784;20.604;2024-03-22T12:57:55;6.97;;;6.28;;
43990;SDS011;29654;50.784;20.604;2024-03-22T13:03:00;6.90;;;6.30;;
43990;SDS011;29654;50.784;20.604;2024-03-22T13:08:03;5.35;;;4.88;;
43990;SDS011;29654;50.784;20.604;2024-03-22T13:13:07;5.30;;;4.80;;
43990;SDS011;29654;50.784;20.604;2024-03-22T13:18:12;4.78;;;4.38;;
43990;SDS011;29654;50.784;20.604;2024-03-22T13:23:15;4.40;;;4.05;;
43990;SDS011;29654;50.784;20.604;2024-03-22T13:28:18;4.43;;;4.03;;
43990;SDS011;29654;50.784;20.604;2024-03-22T13:33:24;3.97;;;3.67;;
43990;SDS011;29654;50.784;20.604;2024-03-22T13:38:27;4.35;;;3.78;;
43990;SDS011;29654;50.784;20.604;2024-03-22T13:43:30;4.47;;;3.97;;
43990;SDS011;29654;50.784;20.604;2024-03-22T13:48:34;5.13;;;4.65;;
43990;SDS011;29654;50.784;20.604;2024-03-22T13:53:37;5.38;;;4.88;;
43990;SDS011;29654;50.784;20.604;2024-03-22T13:58:40;5.43;;;5.00;;
43990;SDS011;29654;50.784;20.604;2024-03-22T14:03:44;6.07;;;5.53;;
43990;SDS011;29654;50.784;20.604;2024-03-22T14:08:48;5.25;;;4.75;;
43990;SDS011;29654;50.784;20.604;2024-03-22T14:13:54;4.93;;;4.53;;
43990;SDS011;29654;50.784;20.604;2024-03-22T14:18:58;5.68;;;5.00;;
43990;SDS011;29654;50.784;20.604;2024-03-22T14:24:02;5.47;;;5.00;;
43990;SDS011;29654;50.784;20.604;2024-03-22T14:29:05;5.15;;;4.70;;
43990;SDS011;29654;50.784;20.604;2024-03-22T14:34:10;5.57;;;5.07;;
43990;SDS011;29654;50.784;20.604;2024-03-22T14:39:13;4.75;;;4.35;;
43990;SDS011;29654;50.784;20.604;2024-03-22T14:44:16;4.55;;;4.15;;
43990;SDS011;29654;50.784;20.604;2024-03-22T14:49:20;5.72;;;5.20;;
43990;SDS011;29654;50.784;20.604;2024-03-22T14:54:24;4.93;;;4.53;;
43990;SDS011;29654;50.784;20.604;2024-03-22T14:59:27;4.60;;;4.20;;
43990;SDS011;29654;50.784;20.604;2024-03-22T15:04:32;4.80;;;4.40;;
43990;SDS011;29654;50.784;20.604;2024-03-22T15:09:34;5.45;;;5.05;;
43990;SDS011;29654;50.784;20.604;2024-03-22T15:14:37;5.03;;;4.53;;
43990;SDS011;29654;50.784;20.604;2024-03-22T15:19:42;4.53;;;4.13;;
43990;SDS011;29654;50.784;20.604;2024-03-22T15:24:45;4.95;;;4.55;;
43990;SDS011;29654;50.784;20.604;2024-03-22T15:29:48;5.30;;;4.63;;
43990;SDS011;29654;50.784;20.604;2024-03-22T15:34:53;4.75;;;4.40;;
43990;SDS011;29654;50.784;20.604;2024-03-22T15:39:56;4.65;;;4.22;;
43990;SDS011;29654;50.784;20.604;2024-03-22T15:44:59;4.40;;;4.00;;
43990;SDS011;29654;50.784;20.604;2024-03-22T15:50:07;4.97;;;4.57;;
43990;SDS011;29654;50.784;20.604;2024-03-22T15:55:11;4.53;;;4.22;;
43990;SDS011;29654;50.784;20.604;2024-03-22T16:00:14;3.72;;;3.42;;
43990;SDS011;29654;50.784;20.604;2024-03-22T16:05:21;4.70;;;4.30;;
43990;SDS011;29654;50.784;20.604;2024-03-22T16:10:24;4.35;;;4.00;;
43990;SDS011;29654;50.784;20.604;2024-03-22T16:15:27;4.47;;;4.07;;
43990;SDS011;29654;50.784;20.604;2024-03-22T16:20:33;4.35;;;3.97;;
43990;SDS011;29654;50.784;20.604;2024-03-22T16:25:36;4.00;;;3.60;;
43990;SDS011;29654;50.784;20.604;2024-03-22T16:30:39;3.72;;;3.40;;
43990;SDS011;29654;50.784;20.604;2024-03-22T16:35:44;3.65;;;3.33;;
43990;SDS011;29654;50.784;20.604;2024-03-22T16:40:46;4.28;;;3.08;;
43990;SDS011;29654;50.784;20.604;2024-03-22T16:45:50;3.47;;;3.17;;
43990;SDS011;29654;50.784;20.604;2024-03-22T16:50:54;3.95;;;3.45;;
43990;SDS011;29654;50.784;20.604;2024-03-22T16:55:58;4.75;;;3.63;;
43990;SDS011;29654;50.784;20.604;2024-03-22T17:01:02;5.68;;;3.95;;
43990;SDS011;29654;50.784;20.604;2024-03-22T17:06:08;5.97;;;4.65;;
43990;SDS011;29654;50.784;20.604;2024-03-22T17:11:12;5.97;;;4.70;;
43990;SDS011;29654;50.784;20.604;2024-03-22T17:16:16;6.93;;;5.57;;
43990;SDS011;29654;50.784;20.604;2024-03-22T17:21:21;5.78;;;4.95;;
43990;SDS011;29654;50.784;20.604;2024-03-22T17:26:24;6.47;;;5.78;;
43990;SDS011;29654;50.784;20.604;2024-03-22T17:31:27;7.50;;;6.80;;
43990;SDS011;29654;50.784;20.604;2024-03-22T17:36:33;7.00;;;6.30;;
43990;SDS011;29654;50.784;20.604;2024-03-22T17:41:39;6.70;;;6.10;;
43990;SDS011;29654;50.784;20.604;2024-03-22T17:46:42;6.20;;;5.03;;
43990;SDS011;29654;50.784;20.604;2024-03-22T17:51:46;5.45;;;4.95;;
43990;SDS011;29654;50.784;20.604;2024-03-22T17:56:49;6.40;;;5.15;;
43990;SDS011;29654;50.784;20.604;2024-03-22T18:01:52;7.07;;;6.40;;
43990;SDS011;29654;50.784;20.604;2024-03-22T18:06:57;8.45;;;7.55;;
43990;SDS011;29654;50.784;20.604;2024-03-22T18:12:01;10.48;;;8.07;;
43990;SDS011;29654;50.784;20.604;2024-03-22T18:17:05;9.68;;;8.70;;
43990;SDS011;29654;50.784;20.604;2024-03-22T18:22:10;10.32;;;8.07;;
43990;SDS011;29654;50.784;20.604;2024-03-22T18:27:12;9.10;;;8.23;;
43990;SDS011;29654;50.784;20.604;2024-03-22T18:32:15;11.30;;;10.30;;
43990;SDS011;29654;50.784;20.604;2024-03-22T18:37:20;13.13;;;11.82;;
43990;SDS011;29654;50.784;20.604;2024-03-22T18:42:23;13.50;;;12.10;;
43990;SDS011;29654;50.784;20.604;2024-03-22T18:47:26;14.48;;;13.05;;
43990;SDS011;29654;50.784;20.604;2024-03-22T18:52:30;14.30;;;12.80;;
43990;SDS011;29654;50.784;20.604;2024-03-22T18:57:33;18.33;;;16.13;;
43990;SDS011;29654;50.784;20.604;2024-03-22T19:02:37;17.15;;;15.45;;
43990;SDS011;29654;50.784;20.604;2024-03-22T19:07:42;16.67;;;14.93;;
43990;SDS011;29654;50.784;20.604;2024-03-22T19:12:46;18.48;;;16.25;;
43990;SDS011;29654;50.784;20.604;2024-03-22T19:17:49;19.50;;;16.42;;
43990;SDS011;29654;50.784;20.604;2024-03-22T19:22:55;18.17;;;16.27;;
43990;SDS011;29654;50.784;20.604;2024-03-22T19:27:58;18.25;;;16.52;;
43990;SDS011;29654;50.784;20.604;2024-03-22T19:33:01;16.20;;;14.50;;
43990;SDS011;29654;50.784;20.604;2024-03-22T19:38:07;17.40;;;15.75;;
43990;SDS011;29654;50.784;20.604;2024-03-22T19:43:10;18.77;;;16.77;;
43990;SDS011;29654;50.784;20.604;2024-03-22T19:48:13;18.48;;;16.65;;
43990;SDS011;29654;50.784;20.604;2024-03-22T19:53:18;19.50;;;16.58;;
43990;SDS011;29654;50.784;20.604;2024-03-22T19:58:20;18.05;;;16.23;;
43990;SDS011;29654;50.784;20.604;2024-03-22T20:03:23;18.70;;;16.77;;
43990;SDS011;29654;50.784;20.604;2024-03-22T20:08:28;20.52;;;17.38;;
43990;SDS011;29654;50.784;20.604;2024-03-22T20:13:31;18.85;;;16.10;;
43990;SDS011;29654;50.784;20.604;2024-03-22T20:18:33;18.88;;;16.88;;
43990;SDS011;29654;50.784;20.604;2024-03-22T20:23:38;20.17;;;17.75;;
43990;SDS011;29654;50.784;20.604;2024-03-22T20:28:43;21.52;;;17.33;;
43990;SDS011;29654;50.784;20.604;2024-03-22T20:33:47;16.98;;;14.30;;
